Terminal Aerodrome Forecast
Issued by NWS Upton, NY

Home | Current Version | Previous Version | Text Only | Print | Product List | Glossary On
Versions: 1 2 3 4 5 6 7 8 9 10 11 12 13 14 15 16 17 18 19 20 21 22 23 24 25
000
FTUS41 KOKX 042320
TAFISP
TAF
KISP 042320Z 0500/0524 21013KT P6SM FEW250 WS010/22045KT
     FM050700 23008KT P6SM FEW090
     FM051500 VRB05KT P6SM VCSH BKN070
     FM051900 19008KT P6SM VCSH BKN050=

USA.gov is the U.S. government's official web portal to all federal, state and local government web resources and services.